Time;durP1;ratioP1;P1;durP2;ratioP2;P2;SDS_P1;SDS_P2;PMS_P1;PMS_P2;Temp;Humidity;BMP_temperature;BMP_pressure;BME280_temperature;BME280_humidity;BME280_pressure;Samples;Min_cycle;Max_cycle;Signal;HPM_P1;HPM_P2
2024/02/18 00:00:59;;;;;;;18.17;11.13;;;;;;;3.03;100.00;102658.28;2086822;28;20618;-69
2024/02/18 00:02:01;;;;;;;20.83;11.57;;;;;;;3.24;100.00;102689.22;2087626;28;20712;-69
2024/02/18 00:03:01;;;;;;;16.65;8.32;;;;;;;3.18;100.00;102703.47;2086940;28;20210;-69
2024/02/18 00:04:02;;;;;;;18.67;11.73;;;;;;;2.72;100.00;102618.72;2087192;28;20201;-69
2024/02/18 00:05:04;;;;;;;20.80;8.97;;;;;;;3.14;100.00;102686.88;2087340;28;20187;-69
2024/02/18 00:06:04;;;;;;;19.75;11.70;;;;;;;2.95;100.00;102664.63;2087748;28;20566;-69
2024/02/18 00:07:05;;;;;;;25.17;12.37;;;;;;;3.10;100.00;102688.72;2087318;28;20219;-69
2024/02/18 00:08:06;;;;;;;23.50;12.70;;;;;;;2.66;100.00;102620.00;2087260;28;20192;-69
2024/02/18 00:09:06;;;;;;;20.27;8.97;;;;;;;3.05;100.00;102685.34;2087656;28;20715;-69
2024/02/18 00:10:07;;;;;;;15.97;8.87;;;;;;;2.69;100.00;102628.38;2088455;28;20222;-69
2024/02/18 00:11:08;;;;;;;21.07;11.30;;;;;;;2.77;100.00;102651.38;2087072;28;20262;-69
2024/02/18 00:12:08;;;;;;;13.73;8.43;;;;;;;2.96;100.00;102685.41;2087704;28;20230;-69
2024/02/18 00:13:09;;;;;;;16.83;8.83;;;;;;;2.97;100.00;102689.75;2087648;28;20675;-69
2024/02/18 00:14:09;;;;;;;16.23;8.17;;;;;;;2.15;100.00;102571.00;2087114;28;20225;-69
2024/02/18 00:15:10;;;;;;;22.73;11.97;;;;;;;2.95;100.00;102685.72;2095061;28;20218;-69
2024/02/18 00:16:11;;;;;;;21.87;12.17;;;;;;;2.89;100.00;102690.59;2086772;28;20188;-69
2024/02/18 00:17:12;;;;;;;25.90;12.83;;;;;;;2.35;100.00;102609.41;2086410;28;20180;-70
2024/02/18 00:18:13;;;;;;;21.50;12.00;;;;;;;2.81;100.00;102688.72;2087263;28;20210;-69
2024/02/18 00:19:13;;;;;;;19.17;12.03;;;;;;;1.88;100.00;102560.50;2088137;28;20184;-69
2024/02/18 00:20:15;;;;;;;21.17;8.70;;;;;;;2.87;100.00;102698.34;2086994;28;20192;-68
2024/02/18 00:21:17;;;;;;;23.65;12.50;;;;;;;2.79;100.00;102685.50;2086852;28;20207;-69
2024/02/18 00:22:17;;;;;;;23.83;13.43;;;;;;;2.71;100.00;102672.66;2087472;28;20218;-69
2024/02/18 00:23:18;;;;;;;26.33;13.93;;;;;;;2.78;100.00;102688.56;2087562;28;20203;-69
2024/02/18 00:24:19;;;;;;;22.57;13.13;;;;;;;2.08;100.00;102581.66;2087247;28;20213;-69
2024/02/18 00:25:19;;;;;;;20.97;11.93;;;;;;;2.79;100.00;102690.97;2087806;28;20202;-69
2024/02/18 00:26:19;;;;;;;20.13;8.83;;;;;;;2.71;100.00;102694.56;2087426;28;20241;-69
2024/02/18 00:27:20;;;;;;;14.83;8.67;;;;;;;2.62;100.00;102671.09;2088211;28;20277;-69
2024/02/18 00:28:21;;;;;;;20.87;10.70;;;;;;;2.78;100.00;102686.63;2086979;28;20214;-69
2024/02/18 00:29:21;;;;;;;14.80;8.90;;;;;;;2.73;100.00;102673.13;2087546;28;20202;-69
2024/02/18 00:30:22;;;;;;;18.37;8.87;;;;;;;2.31;100.00;102610.41;2087129;28;20184;-69
2024/02/18 00:31:22;;;;;;;14.67;8.10;;;;;;;2.12;100.00;102572.50;2086889;28;20201;-69
2024/02/18 00:32:23;;;;;;;18.40;9.37;;;;;;;2.87;100.00;102686.59;2087186;28;20683;-69
2024/02/18 00:33:24;;;;;;;14.83;8.73;;;;;;;2.09;100.00;102556.75;2086844;28;20657;-69
2024/02/18 00:34:24;;;;;;;17.77;10.30;;;;;;;2.18;100.00;102565.72;2086708;28;20218;-69
2024/02/18 00:35:25;;;;;;;23.17;12.43;;;;;;;2.84;100.00;102671.63;2088137;28;20680;-69
2024/02/18 00:36:25;;;;;;;17.73;9.43;;;;;;;2.96;100.00;102679.94;2087241;28;20591;-69
2024/02/18 00:37:26;;;;;;;19.40;9.70;;;;;;;2.95;100.00;102678.31;2087774;28;20249;-69
2024/02/18 00:38:27;;;;;;;25.87;13.20;;;;;;;2.95;100.00;102677.50;2086299;28;20218;-69
2024/02/18 00:39:28;;;;;;;22.98;13.65;;;;;;;2.92;100.00;102678.19;2086552;28;20199;-69
2024/02/18 00:40:28;;;;;;;22.20;12.33;;;;;;;2.77;100.00;102665.84;2086799;28;20205;-69
2024/02/18 00:41:29;;;;;;;27.27;13.93;;;;;;;1.84;100.00;102507.63;2087271;28;20236;-68
2024/02/18 00:42:29;;;;;;;27.27;14.37;;;;;;;2.71;100.00;102648.00;2087231;28;20187;-69
2024/02/18 00:43:30;;;;;;;17.60;9.90;;;;;;;2.23;100.00;102564.72;2087871;28;20187;-69
2024/02/18 00:44:30;;;;;;;23.00;12.07;;;;;;;2.90;100.00;102681.25;2086849;28;20195;-69
2024/02/18 00:45:31;;;;;;;15.60;9.40;;;;;;;2.89;100.00;102674.19;2086595;28;20265;-69
2024/02/18 00:46:31;;;;;;;22.90;13.47;;;;;;;1.92;100.00;102504.06;2086758;28;20711;-69
2024/02/18 00:47:32;;;;;;;23.33;13.00;;;;;;;2.52;100.00;102603.03;2087350;28;20211;-69
2024/02/18 00:48:32;;;;;;;30.30;14.63;;;;;;;2.44;100.00;102601.94;2086086;28;20200;-68
2024/02/18 00:49:33;;;;;;;21.47;12.50;;;;;;;2.98;100.00;102677.66;2086500;28;20182;-69
2024/02/18 00:50:33;;;;;;;24.37;12.73;;;;;;;2.93;100.00;102657.88;2086763;28;20192;-69
2024/02/18 00:51:34;;;;;;;16.93;9.03;;;;;;;2.31;100.00;102572.09;2087313;28;20248;-69
2024/02/18 00:52:35;;;;;;;13.13;7.47;;;;;;;2.96;100.00;102670.88;2087996;28;20217;-69
2024/02/18 00:53:35;;;;;;;19.40;10.93;;;;;;;1.96;100.00;102519.47;2087452;28;20630;-69
2024/02/18 00:54:36;;;;;;;21.30;11.80;;;;;;;2.92;100.00;102681.72;2086799;28;20580;-69
2024/02/18 00:55:42;;;;;;;23.00;8.67;;;;;;;2.36;100.00;102594.56;2087254;28;20188;-69
2024/02/18 00:56:43;;;;;;;19.15;10.68;;;;;;;2.82;100.00;102673.09;2086387;28;20195;-69
2024/02/18 00:57:43;;;;;;;19.57;11.40;;;;;;;2.90;100.00;102678.50;2087232;28;20206;-69
2024/02/18 00:58:44;;;;;;;22.67;10.97;;;;;;;2.90;100.00;102673.03;2087087;28;20655;-69
2024/02/18 00:59:44;;;;;;;16.60;7.93;;;;;;;2.93;100.00;102683.31;2087246;28;20226;-69
2024/02/18 01:00:45;;;;;;;18.93;8.40;;;;;;;2.81;100.00;102658.59;2086816;28;20813;-69
2024/02/18 01:01:45;;;;;;;18.53;9.20;;;;;;;2.80;100.00;102665.19;2087657;28;20723;-68
2024/02/18 01:02:46;;;;;;;19.17;10.00;;;;;;;2.93;100.00;102691.53;2087587;28;20199;-69
2024/02/18 01:03:47;;;;;;;14.43;8.13;;;;;;;2.08;100.00;102541.47;2086956;28;20578;-69
2024/02/18 01:04:47;;;;;;;17.83;9.27;;;;;;;2.72;100.00;102657.03;2086847;28;20226;-69
2024/02/18 01:05:48;;;;;;;17.97;8.20;;;;;;;2.91;100.00;102682.84;2087247;28;20195;-69
2024/02/18 01:06:48;;;;;;;20.27;9.53;;;;;;;2.69;100.00;102661.25;2087457;28;20197;-68
2024/02/18 01:07:51;;;;;;;15.53;7.97;;;;;;;2.83;100.00;102682.91;2087137;28;20219;-69
2024/02/18 01:08:51;;;;;;;18.58;8.88;;;;;;;2.72;100.00;102671.50;2087107;28;20296;-69
2024/02/18 01:09:52;;;;;;;16.27;8.97;;;;;;;2.68;100.00;102664.31;2087925;28;20190;-69
2024/02/18 01:10:53;;;;;;;15.30;8.87;;;;;;;2.55;100.00;102651.63;2086428;28;20318;-69
2024/02/18 01:11:54;;;;;;;18.20;8.67;;;;;;;2.71;100.00;102678.13;2087115;28;20282;-69
2024/02/18 01:12:54;;;;;;;23.00;12.60;;;;;;;2.21;100.00;102599.81;2087152;28;20203;-69
2024/02/18 01:13:55;;;;;;;16.00;8.23;;;;;;;2.26;100.00;102616.03;2087108;28;20202;-69
2024/02/18 01:14:55;;;;;;;22.63;10.87;;;;;;;2.69;100.00;102683.13;2086891;28;20191;-68
2024/02/18 01:15:56;;;;;;;19.20;9.50;;;;;;;2.68;100.00;102676.03;2087212;28;20191;-68
2024/02/18 01:16:58;;;;;;;19.70;12.27;;;;;;;2.33;100.00;102621.81;2087169;28;20191;-69
2024/02/18 01:17:58;;;;;;;25.10;13.05;;;;;;;2.23;100.00;102605.75;2087471;28;20952;-69
2024/02/18 01:18:59;;;;;;;24.07;14.10;;;;;;;1.49;100.00;102490.53;2087836;28;20668;-69
2024/02/18 01:19:59;;;;;;;21.97;11.63;;;;;;;2.65;100.00;102673.16;2087102;28;20269;-69
2024/02/18 01:21:00;;;;;;;22.97;12.17;;;;;;;2.63;100.00;102678.16;2086170;28;20225;-69
2024/02/18 01:22:00;;;;;;;22.50;12.53;;;;;;;2.50;100.00;102669.06;2087200;28;20228;-69
2024/02/18 01:23:01;;;;;;;18.53;11.20;;;;;;;1.70;100.00;102535.16;2087191;28;20187;-69
2024/02/18 01:24:01;;;;;;;19.43;9.37;;;;;;;1.79;100.00;102544.16;2086810;28;20265;-69
2024/02/18 01:25:03;;;;;;;24.50;12.37;;;;;;;2.11;100.00;102616.59;2087041;28;20188;-68
2024/02/18 01:26:04;;;;;;;14.88;8.60;;;;;;;2.54;100.00;102660.97;2086547;28;20230;-69
2024/02/18 01:27:04;;;;;;;21.20;11.65;;;;;;;2.64;100.00;102674.28;2087209;28;20759;-69
2024/02/18 01:28:05;;;;;;;25.50;12.97;;;;;;;2.60;100.00;102670.59;2086183;28;20589;-69
2024/02/18 01:29:06;;;;;;;25.23;13.23;;;;;;;2.60;100.00;102676.06;2086470;28;20774;-69
2024/02/18 01:30:06;;;;;;;21.50;12.17;;;;;;;2.59;100.00;102677.22;2087542;28;20533;-69
2024/02/18 01:31:07;;;;;;;22.37;12.83;;;;;;;2.18;100.00;102614.94;2086394;28;20194;-69
2024/02/18 01:32:07;;;;;;;19.63;9.20;;;;;;;2.55;100.00;102655.19;2087247;28;20214;-69
2024/02/18 01:33:08;;;;;;;18.60;10.20;;;;;;;2.63;100.00;102678.16;2094750;28;20568;-69
2024/02/18 01:34:09;;;;;;;20.73;9.27;;;;;;;2.62;100.00;102676.56;2094420;28;20752;-69
2024/02/18 01:35:09;;;;;;;19.08;11.30;;;;;;;2.58;100.00;102681.88;2087873;28;20187;-69
2024/02/18 01:36:10;;;;;;;18.97;11.70;;;;;;;2.59;100.00;102672.56;2087433;28;20682;-69
2024/02/18 01:37:10;;;;;;;21.20;12.20;;;;;;;2.52;100.00;102649.56;2086368;28;20642;-69
2024/02/18 01:38:11;;;;;;;22.20;12.67;;;;;;;2.61;100.00;102666.72;2086104;28;20675;-69
2024/02/18 01:39:12;;;;;;;22.83;12.80;;;;;;;2.45;100.00;102652.81;2086353;28;20187;-69
2024/02/18 01:40:13;;;;;;;16.57;9.13;;;;;;;1.95;100.00;102578.03;2087148;28;20198;-68
2024/02/18 01:41:14;;;;;;;17.98;9.15;;;;;;;2.52;100.00;102661.31;2086362;28;20278;-69
2024/02/18 01:42:14;;;;;;;19.90;10.03;;;;;;;2.59;100.00;102663.53;2094655;28;20204;-69
2024/02/18 01:43:17;;;;;;;25.93;10.17;;;;;;;2.64;100.00;102677.03;2095245;28;20186;-69
2024/02/18 01:44:18;;;;;;;21.75;9.85;;;;;;;2.19;100.00;102624.75;2087104;28;20228;-68
2024/02/18 01:45:18;;;;;;;20.47;9.63;;;;;;;2.06;100.00;102614.81;2087441;28;20215;-70
2024/02/18 01:46:19;;;;;;;31.20;11.73;;;;;;;2.54;100.00;102674.66;2087103;28;20249;-69
2024/02/18 01:47:20;;;;;;;24.67;11.50;;;;;;;2.25;100.00;102636.31;2087198;28;20196;-69
2024/02/18 01:48:22;;;;;;;21.87;10.77;;;;;;;2.05;100.00;102609.69;2086628;28;20463;-69
2024/02/18 01:49:23;;;;;;;26.08;13.02;;;;;;;1.14;100.00;102478.09;2086907;28;20714;-69
2024/02/18 01:50:24;;;;;;;30.60;15.80;;;;;;;2.18;100.00;102625.91;2085777;28;20649;-69
2024/02/18 01:51:25;;;;;;;31.42;16.05;;;;;;;2.42;100.00;102667.13;2086291;28;20190;-69
2024/02/18 01:52:28;;;;;;;25.10;11.57;;;;;;;2.14;100.00;102626.84;2087659;28;20183;-69
2024/02/18 01:53:29;;;;;;;21.95;10.88;;;;;;;1.79;100.00;102573.41;2087041;28;20580;-69
2024/02/18 01:54:33;;;;;;;38.00;11.20;;;;;;;1.89;100.00;102582.06;2086351;28;20240;-69
2024/02/18 01:55:34;;;;;;;32.78;15.68;;;;;;;2.47;100.00;102671.66;2087068;28;20198;-69
2024/02/18 01:56:34;;;;;;;26.10;11.43;;;;;;;2.47;100.00;102675.16;2087125;28;20257;-68
2024/02/18 01:57:37;;;;;;;25.37;11.23;;;;;;;2.26;100.00;102622.31;2087178;28;20355;-69
2024/02/18 01:58:38;;;;;;;30.88;12.57;;;;;;;2.47;100.00;102664.22;2086744;28;20668;-69
2024/02/18 01:59:40;;;;;;;27.60;10.43;;;;;;;2.32;100.00;102640.13;2085973;28;20187;-69
2024/02/18 02:00:43;;;;;;;32.17;16.80;;;;;;;2.52;100.00;102666.78;2085996;28;20771;-69
2024/02/18 02:01:43;;;;;;;25.60;11.70;;;;;;;2.11;100.00;102586.50;2086951;28;20593;-69
2024/02/18 02:02:47;;;;;;;20.60;10.70;;;;;;;2.52;100.00;102664.03;2087806;28;20272;-69
2024/02/18 02:03:49;;;;;;;34.92;16.48;;;;;;;2.62;100.00;102666.41;2087333;28;20218;-69
2024/02/18 02:04:50;;;;;;;31.95;17.10;;;;;;;1.67;100.00;102524.91;2086530;28;20662;-69
2024/02/18 02:05:52;;;;;;;33.77;16.60;;;;;;;2.05;100.00;102574.94;2087254;28;20810;-69
2024/02/18 02:06:53;;;;;;;34.75;17.30;;;;;;;2.55;100.00;102666.13;2087193;28;20195;-69
2024/02/18 02:07:54;;;;;;;37.43;17.83;;;;;;;2.59;100.00;102674.47;2086535;28;20191;-69
2024/02/18 02:08:55;;;;;;;38.95;17.08;;;;;;;2.45;100.00;102654.72;2086874;28;20657;-69
2024/02/18 02:09:56;;;;;;;36.10;17.23;;;;;;;2.60;100.00;102687.84;2088557;28;20552;-69
2024/02/18 02:10:56;;;;;;;23.63;9.33;;;;;;;2.66;100.00;102672.84;2087974;28;20201;-69
2024/02/18 02:11:57;;;;;;;28.60;11.80;;;;;;;2.71;100.00;102663.63;2089103;28;20207;-69
2024/02/18 02:12:58;;;;;;;25.80;11.13;;;;;;;2.62;100.00;102679.31;2088673;28;20204;-69
2024/02/18 02:13:58;;;;;;;26.67;11.87;;;;;;;2.62;100.00;102665.63;2088153;28;20204;-69
2024/02/18 02:14:59;;;;;;;24.53;10.73;;;;;;;2.46;100.00;102638.00;2088186;28;20199;-69
2024/02/18 02:15:59;;;;;;;31.53;12.90;;;;;;;2.61;100.00;102664.81;2088679;28;20669;-68
2024/02/18 02:17:00;;;;;;;17.27;10.33;;;;;;;2.68;100.00;102659.59;2088526;28;20602;-69
2024/02/18 02:18:00;;;;;;;17.67;9.93;;;;;;;2.59;100.00;102660.78;2088260;28;20190;-69
2024/02/18 02:19:01;;;;;;;20.97;11.80;;;;;;;2.35;100.00;102612.13;2087649;28;20700;-69
2024/02/18 02:20:02;;;;;;;22.53;11.60;;;;;;;2.73;100.00;102672.31;2088452;28;20218;-69
2024/02/18 02:21:03;;;;;;;26.77;11.25;;;;;;;2.75;100.00;102656.38;2088312;28;20227;-69
2024/02/18 02:22:04;;;;;;;19.53;10.87;;;;;;;2.60;100.00;102648.72;2088588;28;20253;-69
2024/02/18 02:23:05;;;;;;;19.40;9.87;;;;;;;2.66;100.00;102664.63;2088388;28;20288;-69
2024/02/18 02:24:06;;;;;;;28.52;11.27;;;;;;;2.33;100.00;102583.50;2087566;28;20209;-69
2024/02/18 02:25:11;;;;;;;19.92;10.05;;;;;;;2.73;100.00;102644.94;2087802;28;20282;-69
2024/02/18 02:26:13;;;;;;;22.42;10.30;;;;;;;2.71;100.00;102645.28;2079858;28;20203;-69
2024/02/18 02:27:20;;;;;;;23.10;11.50;;;;;;;2.83;100.00;102652.78;2086753;28;20187;-69
2024/02/18 02:28:25;;;;;;;24.65;10.55;;;;;;;2.88;100.00;102656.13;2087782;28;20206;-69
2024/02/18 02:29:26;;;;;;;23.92;10.45;;;;;;;1.47;100.00;102431.91;2087427;28;20195;-69
2024/02/18 02:30:28;;;;;;;21.50;9.67;;;;;;;2.88;100.00;102655.31;2086997;28;20195;-69
2024/02/18 02:31:28;;;;;;;20.65;10.35;;;;;;;2.91;100.00;102660.13;2089011;28;20195;-69
2024/02/18 02:32:29;;;;;;;22.83;10.17;;;;;;;2.31;100.00;102561.94;2088517;28;20195;-69
2024/02/18 02:33:30;;;;;;;16.43;9.90;;;;;;;2.82;100.00;102665.66;2088508;28;20197;-69
2024/02/18 02:34:31;;;;;;;17.50;10.43;;;;;;;2.93;100.00;102652.41;2087295;28;20585;-69
2024/02/18 02:35:32;;;;;;;18.07;8.53;;;;;;;2.59;100.00;102593.19;2088268;28;20239;-69
2024/02/18 02:36:33;;;;;;;16.15;8.52;;;;;;;2.92;100.00;102667.22;2088051;28;20731;-69
2024/02/18 02:37:33;;;;;;;14.70;9.23;;;;;;;3.02;100.00;102666.81;2088361;28;20302;-69
2024/02/18 02:38:36;;;;;;;14.88;8.82;;;;;;;2.86;100.00;102631.00;2087812;28;20617;-69
2024/02/18 02:39:36;;;;;;;16.40;8.93;;;;;;;3.12;100.00;102670.00;2088372;28;20217;-69
2024/02/18 02:40:37;;;;;;;21.93;9.93;;;;;;;3.11;100.00;102668.38;2088409;28;20205;-69
2024/02/18 02:41:38;;;;;;;18.33;10.03;;;;;;;2.31;100.00;102548.25;2088405;28;20211;-69
2024/02/18 02:42:39;;;;;;;24.83;9.30;;;;;;;3.02;100.00;102647.66;2088452;28;20218;-69
2024/02/18 02:43:39;;;;;;;21.57;10.20;;;;;;;2.66;100.00;102606.31;2088171;28;20198;-69
2024/02/18 02:44:40;;;;;;;14.77;9.27;;;;;;;2.62;100.00;102592.50;2087772;28;20238;-69
2024/02/18 02:45:40;;;;;;;15.77;10.30;;;;;;;3.26;100.00;102664.25;2088281;28;20231;-69
2024/02/18 02:46:41;;;;;;;16.80;10.40;;;;;;;3.27;100.00;102668.59;2087696;28;20185;-69
2024/02/18 02:47:41;;;;;;;15.40;9.27;;;;;;;3.11;100.00;102668.38;2088120;28;20269;-69
2024/02/18 02:48:42;;;;;;;20.77;11.27;;;;;;;3.08;100.00;102649.09;2088223;28;20185;-69
2024/02/18 02:49:42;;;;;;;17.57;9.70;;;;;;;3.31;100.00;102664.03;2088137;28;20212;-69
2024/02/18 02:50:43;;;;;;;15.73;10.00;;;;;;;3.22;100.00;102652.34;2095015;28;20292;-69
2024/02/18 02:51:43;;;;;;;17.63;9.63;;;;;;;2.55;100.00;102575.00;2087308;28;20184;-69
2024/02/18 02:52:44;;;;;;;16.53;10.00;;;;;;;2.55;100.00;102597.72;2086985;28;20856;-69
2024/02/18 02:53:45;;;;;;;19.03;9.70;;;;;;;2.92;100.00;102648.84;2088273;28;20602;-69
2024/02/18 02:54:46;;;;;;;17.67;10.00;;;;;;;2.75;100.00;102613.38;2087554;28;20708;-69
2024/02/18 02:55:46;;;;;;;18.87;9.90;;;;;;;2.38;100.00;102543.09;2088006;28;20585;-68
2024/02/18 02:56:47;;;;;;;16.07;8.90;;;;;;;3.08;100.00;102655.34;2088914;28;20542;-69
2024/02/18 02:57:52;;;;;;;17.07;9.27;;;;;;;3.14;100.00;102677.88;2088593;28;20674;-69
2024/02/18 02:58:53;;;;;;;17.20;9.00;;;;;;;3.18;100.00;102667.88;2088147;28;20196;-69
2024/02/18 02:59:54;;;;;;;24.70;10.07;;;;;;;3.16;100.00;102650.94;2088430;28;20220;-68
2024/02/18 03:00:54;;;;;;;15.17;8.27;;;;;;;2.95;100.00;102614.50;2087510;28;20215;-69
2024/02/18 03:01:55;;;;;;;12.97;8.23;;;;;;;3.07;100.00;102655.66;2087887;28;20446;-69
2024/02/18 03:02:55;;;;;;;14.47;9.43;;;;;;;3.23;100.00;102668.44;2088343;28;20191;-69
2024/02/18 03:03:56;;;;;;;18.37;9.40;;;;;;;3.34;100.00;102679.84;2087918;28;20209;-68
2024/02/18 03:04:56;;;;;;;15.93;8.87;;;;;;;3.37;100.00;102670.91;2087562;28;20178;-69
2024/02/18 03:05:56;;;;;;;14.07;8.83;;;;;;;3.38;100.00;102676.06;2088713;28;20649;-69
2024/02/18 03:06:57;;;;;;;18.93;9.93;;;;;;;2.97;100.00;102585.66;2088280;28;20208;-70
2024/02/18 03:07:57;;;;;;;19.37;8.60;;;;;;;3.25;100.00;102635.25;2087759;28;20639;-69
2024/02/18 03:08:58;;;;;;;14.23;8.83;;;;;;;3.12;100.00;102620.66;2088198;28;20255;-69
2024/02/18 03:09:59;;;;;;;16.20;9.43;;;;;;;3.34;100.00;102657.91;2088288;28;20201;-69
2024/02/18 03:10:59;;;;;;;15.30;8.53;;;;;;;3.42;100.00;102662.50;2087415;28;20273;-68
2024/02/18 03:12:00;;;;;;;16.57;9.50;;;;;;;2.96;100.00;102586.00;2095569;28;20189;-69
2024/02/18 03:13:00;;;;;;;14.27;8.70;;;;;;;3.28;100.00;102662.00;2095649;28;20684;-69
2024/02/18 03:14:01;;;;;;;15.33;9.17;;;;;;;3.22;100.00;102653.16;2095525;28;20189;-69
2024/02/18 03:15:02;;;;;;;14.80;8.00;;;;;;;2.74;100.00;102580.84;2096397;28;20206;-69
2024/02/18 03:16:02;;;;;;;15.70;9.30;;;;;;;3.29;100.00;102667.13;2087488;28;20217;-69
2024/02/18 03:17:03;;;;;;;16.60;8.33;;;;;;;3.27;100.00;102652.13;2088041;28;20187;-69
2024/02/18 03:18:04;;;;;;;15.90;8.53;;;;;;;3.43;100.00;102653.13;2087734;28;20657;-69
2024/02/18 03:19:04;;;;;;;15.97;9.00;;;;;;;3.50;100.00;102656.16;2087845;28;20187;-69
2024/02/18 03:20:11;;;;;;;17.43;9.40;;;;;;;3.21;100.00;102595.94;2087771;28;20265;-69
2024/02/18 03:21:12;;;;;;;15.23;8.32;;;;;;;3.63;100.00;102646.84;2086589;28;20640;-69
2024/02/18 03:22:21;;;;;;;13.13;8.67;;;;;;;3.66;100.00;102646.97;2087369;28;20269;-69
2024/02/18 03:23:21;;;;;;;13.07;8.50;;;;;;;3.75;100.00;102644.94;2088261;28;20181;-69
2024/02/18 03:24:21;;;;;;;15.00;8.90;;;;;;;3.68;100.00;102649.38;2087733;28;20181;-69
2024/02/18 03:25:22;;;;;;;15.90;8.30;;;;;;;3.72;100.00;102650.31;2088772;28;20585;-69
2024/02/18 03:26:22;;;;;;;14.67;8.90;;;;;;;3.55;100.00;102620.31;2087945;28;20679;-69
2024/02/18 03:27:23;;;;;;;13.90;8.07;;;;;;;3.75;100.00;102649.63;2088231;28;20682;-69
2024/02/18 03:28:25;;;;;;;15.17;9.10;;;;;;;3.38;100.00;102576.63;2094959;28;20203;-69
2024/02/18 03:29:26;;;;;;;13.07;7.97;;;;;;;2.77;100.00;102485.13;2095505;28;20594;-69
2024/02/18 03:30:27;;;;;;;13.20;8.47;;;;;;;3.84;100.00;102639.41;2094703;28;20341;-69
2024/02/18 03:31:29;;;;;;;13.03;8.43;;;;;;;3.38;100.00;102582.09;2095522;28;20192;-69
2024/02/18 03:32:29;;;;;;;10.80;7.93;;;;;;;3.62;100.00;102645.22;2087849;28;20654;-69
2024/02/18 03:33:30;;;;;;;11.87;8.40;;;;;;;3.14;100.00;102568.28;2088649;28;20200;-69
2024/02/18 03:34:30;;;;;;;17.37;9.40;;;;;;;2.98;100.00;102573.56;2087287;28;20221;-69
2024/02/18 03:35:31;;;;;;;13.90;8.63;;;;;;;3.58;100.00;102647.84;2087953;28;20193;-69
2024/02/18 03:36:32;;;;;;;14.73;8.33;;;;;;;3.68;100.00;102652.91;2087757;28;20189;-69
2024/02/18 03:37:33;;;;;;;13.77;8.80;;;;;;;2.93;100.00;102521.72;2087959;28;20643;-69
2024/02/18 03:38:34;;;;;;;12.27;8.02;;;;;;;3.77;100.00;102653.66;2087465;28;20242;-69
2024/02/18 03:39:34;;;;;;;13.83;9.73;;;;;;;3.80;100.00;102652.97;2087821;28;20186;-69
2024/02/18 03:40:35;;;;;;;17.43;9.50;;;;;;;3.71;100.00;102637.75;2087233;28;20186;-69
2024/02/18 03:41:36;;;;;;;16.63;8.93;;;;;;;3.22;100.00;102557.25;2087743;28;20267;-69
2024/02/18 03:42:36;;;;;;;18.20;9.60;;;;;;;3.69;100.00;102620.84;2087730;28;20284;-69
2024/02/18 03:43:39;;;;;;;17.73;10.50;;;;;;;3.42;100.00;102577.53;2087819;28;20195;-69
2024/02/18 03:44:39;;;;;;;16.15;10.02;;;;;;;3.70;100.00;102620.47;2087432;28;20199;-69
2024/02/18 03:45:40;;;;;;;17.27;10.17;;;;;;;3.82;100.00;102645.22;2087348;28;20195;-69
2024/02/18 03:46:40;;;;;;;16.67;9.20;;;;;;;3.86;100.00;102648.84;2086961;28;20276;-69
2024/02/18 03:47:42;;;;;;;16.53;9.87;;;;;;;3.84;100.00;102653.09;2087008;28;20305;-69
2024/02/18 03:48:42;;;;;;;15.65;9.18;;;;;;;3.87;100.00;102644.19;2087266;28;20215;-69
2024/02/18 03:49:43;;;;;;;14.60;9.23;;;;;;;3.84;100.00;102651.16;2087530;28;20194;-68
2024/02/18 03:50:43;;;;;;;17.37;9.10;;;;;;;3.75;100.00;102658.66;2087338;28;20788;-69
2024/02/18 03:51:43;;;;;;;17.53;11.23;;;;;;;3.75;100.00;102657.88;2087063;28;20201;-69
2024/02/18 03:52:44;;;;;;;14.77;8.63;;;;;;;3.16;100.00;102550.38;2087064;28;20244;-69
2024/02/18 03:53:45;;;;;;;13.53;8.50;;;;;;;3.75;100.00;102653.16;2087679;28;20190;-69
2024/02/18 03:54:45;;;;;;;17.17;9.80;;;;;;;3.37;100.00;102578.56;2087212;28;20596;-69
2024/02/18 03:55:46;;;;;;;17.13;9.93;;;;;;;3.76;100.00;102629.31;2087548;28;20644;-69
2024/02/18 03:56:46;;;;;;;17.13;9.67;;;;;;;3.91;100.00;102645.91;2087724;28;20195;-69
2024/02/18 03:57:47;;;;;;;17.30;8.83;;;;;;;3.92;100.00;102649.47;2087624;28;20215;-69
2024/02/18 03:58:47;;;;;;;17.23;9.10;;;;;;;3.60;100.00;102598.97;2088212;28;20220;-69
2024/02/18 03:59:48;;;;;;;17.63;10.10;;;;;;;4.00;100.00;102640.34;2087735;28;20203;-69
2024/02/18 04:00:48;;;;;;;13.27;8.27;;;;;;;4.01;100.00;102648.22;2087209;28;20198;-69
2024/02/18 04:01:49;;;;;;;16.80;8.97;;;;;;;4.00;100.00;102634.88;2087635;28;20233;-69
2024/02/18 04:02:49;;;;;;;15.00;8.83;;;;;;;3.69;100.00;102576.97;2087679;28;20198;-69
2024/02/18 04:03:50;;;;;;;17.37;9.47;;;;;;;3.75;100.00;102576.38;2087613;28;20205;-69
2024/02/18 04:04:50;;;;;;;17.07;9.63;;;;;;;4.17;100.00;102640.16;2087200;28;20220;-69
2024/02/18 04:05:51;;;;;;;15.93;9.67;;;;;;;4.19;100.00;102632.38;2087484;28;20191;-69
2024/02/18 04:06:51;;;;;;;15.03;7.83;;;;;;;4.23;100.00;102634.09;2087973;28;20181;-69
2024/02/18 04:07:52;;;;;;;17.80;9.37;;;;;;;4.17;100.00;102626.44;2087469;28;20182;-69
2024/02/18 04:08:53;;;;;;;13.83;8.83;;;;;;;4.13;100.00;102618.06;2087109;28;20196;-69
2024/02/18 04:09:54;;;;;;;16.15;8.32;;;;;;;3.50;100.00;102506.16;2087494;28;20244;-69
2024/02/18 04:10:54;;;;;;;16.37;9.00;;;;;;;4.12;100.00;102593.72;2094757;28;20183;-69
2024/02/18 04:11:55;;;;;;;15.37;9.07;;;;;;;4.46;100.00;102639.97;2095111;28;20216;-69
2024/02/18 04:12:56;;;;;;;12.50;7.30;;;;;;;3.21;100.00;102429.63;2087597;28;20182;-69
2024/02/18 04:13:56;;;;;;;17.17;9.10;;;;;;;4.61;100.00;102642.81;2087630;28;20970;-69
2024/02/18 04:14:57;;;;;;;13.53;8.57;;;;;;;4.12;100.00;102580.81;2087012;28;20203;-69
2024/02/18 04:15:57;;;;;;;16.20;8.83;;;;;;;3.34;100.00;102455.13;2088073;28;20190;-69
2024/02/18 04:16:58;;;;;;;12.80;8.23;;;;;;;4.58;100.00;102638.03;2087490;28;20199;-69
2024/02/18 04:17:58;;;;;;;11.93;8.53;;;;;;;4.63;100.00;102657.00;2087205;28;20195;-69
2024/02/18 04:18:59;;;;;;;15.17;8.10;;;;;;;4.41;100.00;102604.50;2095170;28;20282;-69
2024/02/18 04:19:59;;;;;;;13.87;8.70;;;;;;;4.53;100.00;102621.78;2095195;28;20267;-69
2024/02/18 04:21:00;;;;;;;14.97;9.37;;;;;;;3.98;100.00;102543.84;2087070;28;20202;-69
2024/02/18 04:22:00;;;;;;;14.03;8.00;;;;;;;4.62;100.00;102640.88;2087371;28;20190;-69
2024/02/18 04:23:01;;;;;;;10.30;7.43;;;;;;;4.65;100.00;102649.22;2087344;28;20198;-69
2024/02/18 04:24:01;;;;;;;13.43;8.80;;;;;;;4.64;100.00;102655.06;2087713;28;20216;-69
2024/02/18 04:25:02;;;;;;;15.13;9.20;;;;;;;4.25;100.00;102592.59;2087760;28;20726;-69
2024/02/18 04:26:03;;;;;;;14.97;8.70;;;;;;;4.72;100.00;102659.66;2087841;28;20204;-69
2024/02/18 04:27:10;;;;;;;13.40;7.93;;;;;;;4.60;100.00;102634.91;2087336;28;20194;-68
2024/02/18 04:28:10;;;;;;;13.50;8.82;;;;;;;4.61;100.00;102648.31;2087249;28;20202;-69
2024/02/18 04:29:11;;;;;;;14.63;8.67;;;;;;;4.50;100.00;102629.88;2087740;28;20194;-69
2024/02/18 04:30:12;;;;;;;12.57;8.03;;;;;;;3.56;100.00;102480.16;2087642;28;20222;-69
2024/02/18 04:31:13;;;;;;;13.03;8.57;;;;;;;3.87;100.00;102535.28;2086693;28;20610;-69
2024/02/18 04:32:13;;;;;;;14.85;8.93;;;;;;;4.73;100.00;102661.25;2087185;28;20273;-69
2024/02/18 04:33:14;;;;;;;15.33;8.53;;;;;;;4.70;100.00;102656.41;2088267;28;20187;-69
2024/02/18 04:34:14;;;;;;;14.87;8.17;;;;;;;4.61;100.00;102642.03;2086997;28;20195;-69
2024/02/18 04:35:15;;;;;;;17.90;9.07;;;;;;;4.33;100.00;102589.75;2087717;28;20195;-69
2024/02/18 04:36:16;;;;;;;14.67;8.53;;;;;;;4.84;100.00;102665.13;2087371;28;20199;-70
2024/02/18 04:37:17;;;;;;;14.40;9.07;;;;;;;4.70;100.00;102659.16;2087422;28;20195;-69
2024/02/18 04:38:18;;;;;;;13.13;8.43;;;;;;;4.14;100.00;102566.72;2086259;28;20195;-69
2024/02/18 04:39:19;;;;;;;13.23;8.97;;;;;;;4.94;100.00;102667.41;2086797;28;20234;-69